Time;durP1;ratioP1;P1;durP2;ratioP2;P2;SDS_P1;SDS_P2;PMS_P1;PMS_P2;Temp;Humidity;BMP_temperature;BMP_pressure;BME280_temperature;BME280_humidity;BME280_pressure;Samples;Min_cycle;Max_cycle;Signal;HPM_P1;HPM_P2
2023/12/05 00:00:43;;;;;;;9.20;6.80;;;-1.10;99.90;;;;;;5040565;28;20293;-47
2023/12/05 00:03:10;;;;;;;10.57;6.97;;;-1.10;99.90;;;;;;5060747;28;20247;-49
2023/12/05 00:05:38;;;;;;;13.57;7.93;;;-1.10;99.90;;;;;;5059547;28;20214;-49
2023/12/05 00:08:05;;;;;;;11.03;7.30;;;-1.10;99.90;;;;;;5050712;28;20209;-48
2023/12/05 00:10:32;;;;;;;13.57;8.30;;;-1.10;99.90;;;;;;5040487;28;20261;-50
2023/12/05 00:13:00;;;;;;;13.47;7.87;;;-1.10;99.90;;;;;;5036582;28;20702;-48
2023/12/05 00:15:27;;;;;;;10.17;7.00;;;-1.10;99.90;;;;;;5050930;28;20223;-45
2023/12/05 00:17:54;;;;;;;11.83;7.50;;;-1.10;99.90;;;;;;5061278;28;20202;-52
2023/12/05 00:20:21;;;;;;;11.07;7.47;;;-1.10;99.90;;;;;;5059450;28;20226;-45
2023/12/05 00:22:49;;;;;;;12.60;7.73;;;-1.10;99.90;;;;;;5051380;28;20248;-50
2023/12/05 00:25:16;;;;;;;12.40;8.23;;;-1.10;99.90;;;;;;5059280;28;20221;-49
2023/12/05 00:27:43;;;;;;;12.27;7.47;;;-1.10;99.90;;;;;;5054910;28;20191;-50
2023/12/05 00:30:10;;;;;;;13.07;7.87;;;-1.10;99.90;;;;;;5036448;28;20283;-50
2023/12/05 00:32:37;;;;;;;12.40;7.30;;;-1.10;99.90;;;;;;5046651;28;20217;-48
2023/12/05 00:35:04;;;;;;;13.43;8.07;;;-1.10;99.90;;;;;;5062306;28;20620;-49
2023/12/05 00:37:31;;;;;;;11.03;6.67;;;-1.10;99.90;;;;;;5044437;28;20186;-47
2023/12/05 00:39:59;;;;;;;12.50;8.10;;;-1.10;99.90;;;;;;5059061;28;20216;-51
2023/12/05 00:42:26;;;;;;;11.23;7.47;;;-1.10;99.90;;;;;;5051507;28;20666;-47
2023/12/05 00:44:53;;;;;;;13.10;7.87;;;-1.00;99.90;;;;;;5035348;28;20273;-49
2023/12/05 00:47:20;;;;;;;13.73;8.53;;;-1.10;99.90;;;;;;5056779;28;20221;-48
2023/12/05 00:49:47;;;;;;;11.73;7.80;;;-1.10;99.90;;;;;;5056719;28;20397;-49
2023/12/05 00:52:14;;;;;;;13.23;8.73;;;-1.10;99.90;;;;;;5061451;28;20265;-49
2023/12/05 00:54:40;;;;;;;12.00;7.63;;;-1.10;99.90;;;;;;5049953;28;20211;-47
2023/12/05 00:57:08;;;;;;;13.53;8.43;;;-1.00;99.90;;;;;;5062170;28;20651;-52
2023/12/05 00:59:35;;;;;;;15.83;8.70;;;-1.10;99.90;;;;;;5049478;28;20257;-53
2023/12/05 01:02:02;;;;;;;12.70;7.73;;;-1.10;99.90;;;;;;5036357;28;20295;-48
2023/12/05 01:04:29;;;;;;;11.87;7.70;;;-1.10;99.90;;;;;;5048841;28;20940;-51
2023/12/05 01:06:56;;;;;;;12.47;8.30;;;-1.10;99.90;;;;;;5061882;28;20295;-49
2023/12/05 01:09:23;;;;;;;13.30;9.00;;;-1.10;99.90;;;;;;5052052;28;20194;-46
2023/12/05 01:11:49;;;;;;;14.17;8.30;;;-1.10;99.90;;;;;;5059734;28;20270;-48
2023/12/05 01:14:18;;;;;;;11.27;8.07;;;-1.10;99.90;;;;;;5052200;28;20250;-47
2023/12/05 01:16:45;;;;;;;13.20;8.13;;;-1.10;99.90;;;;;;5032026;28;20248;-49
2023/12/05 01:19:11;;;;;;;11.27;7.80;;;-1.10;99.90;;;;;;5057754;28;20200;-49
2023/12/05 01:21:38;;;;;;;13.73;7.30;;;-1.10;99.90;;;;;;5052023;28;20205;-48
2023/12/05 01:24:05;;;;;;;11.53;7.87;;;-1.10;99.90;;;;;;5061602;28;20197;-49
2023/12/05 01:26:32;;;;;;;12.33;7.53;;;-1.10;99.90;;;;;;5047545;28;20290;-51
2023/12/05 01:28:59;;;;;;;14.13;8.27;;;-1.10;99.90;;;;;;5053139;28;20211;-51
2023/12/05 01:31:28;;;;;;;13.93;8.70;;;-1.00;99.90;;;;;;5034426;28;20263;-48
2023/12/05 01:33:54;;;;;;;13.13;8.37;;;-1.10;99.90;;;;;;5057503;28;20220;-47
2023/12/05 01:36:22;;;;;;;14.20;8.07;;;-1.00;99.90;;;;;;5050421;28;20233;-48
2023/12/05 01:38:49;;;;;;;12.63;7.73;;;-1.00;99.90;;;;;;5059366;28;20279;-49
2023/12/05 01:41:17;;;;;;;13.07;8.40;;;-1.00;99.90;;;;;;5050933;28;20204;-47
2023/12/05 01:43:43;;;;;;;13.83;8.00;;;-1.00;99.90;;;;;;5051114;28;20263;-49
2023/12/05 01:46:11;;;;;;;14.37;8.33;;;-1.00;99.90;;;;;;5060920;28;20270;-49
2023/12/05 01:48:40;;;;;;;12.80;8.43;;;-1.00;99.90;;;;;;5030591;28;20293;-49
2023/12/05 01:51:10;;;;;;;12.23;7.87;;;-0.90;99.90;;;;;;5053243;28;20229;-51
2023/12/05 01:53:38;;;;;;;12.90;8.50;;;-0.90;99.90;;;;;;5058119;28;20210;-49
2023/12/05 01:56:07;;;;;;;13.53;9.23;;;-0.90;99.90;;;;;;5051922;28;20641;-51
2023/12/05 01:58:35;;;;;;;14.03;8.47;;;-0.90;99.90;;;;;;5049220;28;20282;-50
2023/12/05 02:01:03;;;;;;;13.83;7.67;;;-0.90;99.90;;;;;;5061570;28;20280;-49
2023/12/05 02:03:31;;;;;;;11.67;7.47;;;-0.90;99.90;;;;;;5033343;28;20199;-49
2023/12/05 02:05:59;;;;;;;11.60;8.20;;;-0.90;99.90;;;;;;5052966;28;20641;-52
2023/12/05 02:08:27;;;;;;;12.03;8.10;;;-0.90;99.90;;;;;;5055926;28;20259;-48
2023/12/05 02:10:54;;;;;;;16.97;8.37;;;-0.90;99.90;;;;;;5060965;28;20299;-52
2023/12/05 02:13:21;;;;;;;14.13;9.33;;;-0.90;99.90;;;;;;5044033;28;20310;-47
2023/12/05 02:15:53;;;;;;;16.00;9.60;;;-0.90;99.90;;;;;;5057885;28;20219;-53
2023/12/05 02:18:23;;;;;;;12.13;7.67;;;-0.90;99.90;;;;;;5029177;28;21074;-51
2023/12/05 02:20:56;;;;;;;15.47;8.70;;;-0.90;99.90;;;;;;5052352;28;20205;-47
2023/12/05 02:24:08;;;;;;;13.53;8.70;;;-0.90;99.90;;;;;;5057815;28;20212;-51
2023/12/05 02:26:47;;;;;;;13.17;8.47;;;-0.90;99.90;;;;;;5033223;28;20224;-49
2023/12/05 02:29:15;;;;;;;15.57;8.70;;;-0.90;99.90;;;;;;5044678;28;21005;-48
2023/12/05 02:31:42;;;;;;;12.33;8.33;;;-0.90;99.90;;;;;;5064603;28;20205;-47
2023/12/05 02:34:09;;;;;;;13.30;7.97;;;-0.90;99.90;;;;;;5034855;28;20379;-49
2023/12/05 02:36:44;;;;;;;13.97;8.23;;;-0.90;99.90;;;;;;5064631;28;20252;-47
2023/12/05 02:39:19;;;;;;;13.73;8.47;;;-0.90;99.90;;;;;;5053578;28;20772;-47
2023/12/05 02:41:51;;;;;;;16.37;9.07;;;-0.90;99.90;;;;;;5063894;28;20201;-47
2023/12/05 02:44:23;;;;;;;14.30;9.57;;;-0.90;99.90;;;;;;5054101;28;20776;-47
2023/12/05 02:46:51;;;;;;;14.33;8.73;;;-0.80;99.90;;;;;;5054983;28;20218;-48
2023/12/05 02:49:19;;;;;;;13.53;9.03;;;-0.90;99.90;;;;;;5061161;28;20198;-49
2023/12/05 02:51:46;;;;;;;17.43;10.37;;;-0.80;99.90;;;;;;5038695;28;20225;-49
2023/12/05 02:54:13;;;;;;;16.63;9.20;;;-0.80;99.90;;;;;;5053034;28;20847;-49
2023/12/05 02:56:40;;;;;;;15.40;9.03;;;-0.80;99.90;;;;;;5064058;28;20304;-48
2023/12/05 02:59:07;;;;;;;14.67;10.00;;;-0.80;99.90;;;;;;5051266;28;20977;-50
2023/12/05 03:01:39;;;;;;;17.10;10.00;;;-0.80;99.90;;;;;;5055050;28;20206;-50
2023/12/05 03:04:06;;;;;;;15.20;9.40;;;-0.80;99.90;;;;;;5059959;28;20211;-48
2023/12/05 03:06:33;;;;;;;14.90;9.47;;;-0.80;99.90;;;;;;5038262;28;20265;-49
2023/12/05 03:09:01;;;;;;;14.00;9.57;;;-0.80;99.90;;;;;;5049396;28;20204;-48
2023/12/05 03:11:28;;;;;;;15.70;9.57;;;-0.80;99.90;;;;;;5063610;28;20565;-52
2023/12/05 03:13:55;;;;;;;14.97;9.20;;;-0.80;99.90;;;;;;5055256;28;20225;-47
2023/12/05 03:16:22;;;;;;;14.60;9.73;;;-0.80;99.90;;;;;;5051156;28;20755;-50
2023/12/05 03:18:50;;;;;;;21.23;10.70;;;-0.80;99.90;;;;;;5062734;28;20202;-49
2023/12/05 03:21:18;;;;;;;16.93;10.50;;;-0.80;99.90;;;;;;5036204;28;20228;-48
2023/12/05 03:23:45;;;;;;;16.53;10.23;;;-0.80;99.90;;;;;;5062712;28;20293;-47
2023/12/05 03:26:18;;;;;;;17.20;10.83;;;-0.80;99.90;;;;;;5053703;28;20285;-49
2023/12/05 03:28:45;;;;;;;15.67;10.07;;;-0.80;99.90;;;;;;5061855;28;20210;-49
2023/12/05 03:31:12;;;;;;;18.30;10.03;;;-0.80;99.90;;;;;;5039975;28;20206;-50
2023/12/05 03:33:39;;;;;;;16.60;10.87;;;-0.80;99.90;;;;;;5056076;28;20305;-49
2023/12/05 03:36:09;;;;;;;18.33;9.97;;;-0.80;99.90;;;;;;5035914;28;20234;-48
2023/12/05 03:38:37;;;;;;;15.10;9.87;;;-0.80;99.90;;;;;;5059894;28;20263;-50
2023/12/05 03:41:05;;;;;;;17.90;10.87;;;-0.80;99.90;;;;;;5054741;28;20225;-50
2023/12/05 03:43:31;;;;;;;19.60;10.27;;;-0.80;99.90;;;;;;5059706;28;20267;-48
2023/12/05 03:45:58;;;;;;;17.73;10.27;;;-0.90;99.90;;;;;;5055032;28;20251;-49
2023/12/05 03:48:25;;;;;;;16.50;10.70;;;-0.90;99.90;;;;;;5051027;28;20209;-48
2023/12/05 03:50:52;;;;;;;13.33;10.10;;;-0.90;99.90;;;;;;5037183;28;20608;-49
2023/12/05 03:53:20;;;;;;;16.37;9.60;;;-0.90;99.90;;;;;;5060824;28;20671;-46
2023/12/05 03:55:47;;;;;;;17.70;10.47;;;-0.90;99.90;;;;;;5054458;28;20701;-49
2023/12/05 03:58:14;;;;;;;15.60;9.93;;;-0.90;99.90;;;;;;5061345;28;20192;-48
2023/12/05 04:00:41;;;;;;;18.37;10.50;;;-0.90;99.90;;;;;;5046451;28;20303;-50
2023/12/05 04:03:08;;;;;;;18.90;11.37;;;-1.00;99.90;;;;;;5054170;28;20269;-47
2023/12/05 04:05:35;;;;;;;19.07;10.60;;;-1.00;99.90;;;;;;5034485;28;20299;-49
2023/12/05 04:08:02;;;;;;;16.60;10.97;;;-1.00;99.90;;;;;;5063643;28;20202;-49
2023/12/05 04:10:30;;;;;;;18.93;11.10;;;-1.00;99.90;;;;;;5049607;28;20270;-49
2023/12/05 04:12:57;;;;;;;19.90;11.10;;;-1.00;99.90;;;;;;5057889;28;20591;-51
2023/12/05 04:15:23;;;;;;;17.93;11.07;;;-1.00;99.90;;;;;;5049354;28;20229;-46
2023/12/05 04:17:50;;;;;;;19.43;11.23;;;-1.00;99.90;;;;;;5057493;28;20258;-47
2023/12/05 04:20:17;;;;;;;20.60;11.57;;;-1.00;99.90;;;;;;5052117;28;20206;-48
2023/12/05 04:22:44;;;;;;;22.07;11.70;;;-1.00;99.90;;;;;;5035461;28;20206;-51
2023/12/05 04:25:11;;;;;;;18.73;10.20;;;-0.90;99.90;;;;;;5061019;28;20267;-47
2023/12/05 04:27:39;;;;;;;19.87;11.60;;;-1.00;99.90;;;;;;5041530;28;20191;-49
2023/12/05 04:30:07;;;;;;;17.33;11.53;;;-1.00;99.90;;;;;;5056673;28;20220;-48
2023/12/05 04:32:34;;;;;;;19.90;11.63;;;-1.00;99.90;;;;;;5053234;28;20271;-50
2023/12/05 04:35:01;;;;;;;19.00;11.33;;;-1.00;99.90;;;;;;5050231;28;20244;-45
2023/12/05 04:37:28;;;;;;;21.53;13.17;;;-1.00;99.90;;;;;;5034462;28;20252;-52
2023/12/05 04:39:54;;;;;;;21.63;12.03;;;-1.00;99.90;;;;;;5061569;28;20734;-48
2023/12/05 04:42:21;;;;;;;21.30;11.67;;;-1.00;99.90;;;;;;5051361;28;20560;-49
2023/12/05 04:44:49;;;;;;;19.00;10.87;;;-1.00;99.90;;;;;;5061848;28;20228;-48
2023/12/05 04:47:16;;;;;;;18.37;11.67;;;-1.00;99.90;;;;;;5049374;28;20220;-52
2023/12/05 04:49:43;;;;;;;19.97;12.83;;;-1.00;99.90;;;;;;5061859;28;20212;-47
2023/12/05 04:52:10;;;;;;;18.07;11.03;;;-1.00;99.90;;;;;;5049243;28;20221;-48
2023/12/05 04:54:36;;;;;;;18.60;11.50;;;-1.00;99.90;;;;;;5035791;28;20242;-49
2023/12/05 04:57:04;;;;;;;21.27;12.73;;;-1.00;99.90;;;;;;5058743;28;20275;-47
2023/12/05 04:59:30;;;;;;;19.87;12.33;;;-1.00;99.90;;;;;;5052768;28;20268;-47
2023/12/05 05:01:58;;;;;;;21.43;11.50;;;-1.00;99.90;;;;;;5049694;28;20215;-46
2023/12/05 05:04:25;;;;;;;23.00;13.73;;;-1.00;99.90;;;;;;5059626;28;20190;-46
2023/12/05 05:06:52;;;;;;;23.10;13.87;;;-1.00;99.90;;;;;;5052326;28;20781;-46
2023/12/05 05:09:19;;;;;;;21.70;13.00;;;-1.00;99.90;;;;;;5032111;28;20215;-47
2023/12/05 05:11:46;;;;;;;22.27;12.80;;;-1.00;99.90;;;;;;5057732;28;20248;-46
2023/12/05 05:14:12;;;;;;;20.00;12.10;;;-1.00;99.90;;;;;;5050008;28;20992;-48
2023/12/05 05:16:39;;;;;;;20.57;13.43;;;-1.00;99.90;;;;;;5060731;28;20223;-51
2023/12/05 05:19:07;;;;;;;21.67;11.43;;;-1.00;99.90;;;;;;5049658;28;20251;-46
2023/12/05 05:21:34;;;;;;;27.07;13.67;;;-1.00;99.90;;;;;;5053032;28;20761;-48
2023/12/05 05:24:01;;;;;;;19.17;12.17;;;-1.00;99.90;;;;;;5036867;28;20208;-48
2023/12/05 05:26:28;;;;;;;20.40;12.63;;;-1.00;99.90;;;;;;5051170;28;20224;-46
2023/12/05 05:28:54;;;;;;;23.87;13.07;;;-1.10;99.90;;;;;;5057402;28;20202;-44
2023/12/05 05:31:21;;;;;;;25.50;13.80;;;-1.00;99.90;;;;;;5054227;28;20206;-47
2023/12/05 05:33:48;;;;;;;24.93;13.60;;;-1.00;99.90;;;;;;5051361;28;20205;-48
2023/12/05 05:36:16;;;;;;;22.77;13.37;;;-1.00;99.90;;;;;;5048037;28;20226;-49
2023/12/05 05:38:43;;;;;;;24.23;14.20;;;-1.00;99.90;;;;;;5048040;28;20283;-48
2023/12/05 05:41:11;;;;;;;22.67;13.33;;;-1.00;99.90;;;;;;5015488;28;20233;-45
2023/12/05 05:43:38;;;;;;;25.07;13.83;;;-1.00;99.90;;;;;;5052348;28;20472;-50
2023/12/05 05:46:05;;;;;;;24.40;13.90;;;-1.00;99.90;;;;;;5037759;28;20323;-46
2023/12/05 05:48:32;;;;;;;22.70;13.30;;;-1.10;99.90;;;;;;5049469;28;20231;-49
2023/12/05 05:50:59;;;;;;;27.53;14.67;;;-1.10;99.90;;;;;;5061208;28;20198;-47
2023/12/05 05:53:27;;;;;;;22.63;12.93;;;-1.10;99.90;;;;;;5049362;28;20986;-48
2023/12/05 05:55:54;;;;;;;22.90;14.43;;;-1.10;99.90;;;;;;5034633;28;20305;-49
2023/12/05 05:58:21;;;;;;;25.20;14.27;;;-1.10;99.90;;;;;;5048063;28;20809;-50
2023/12/05 06:00:47;;;;;;;22.77;14.23;;;-1.10;99.90;;;;;;5051812;28;20615;-50
2023/12/05 06:03:14;;;;;;;24.23;14.57;;;-1.10;99.90;;;;;;5041001;28;20209;-45
2023/12/05 06:05:41;;;;;;;25.20;13.80;;;-1.10;99.90;;;;;;5060792;28;20304;-48
2023/12/05 06:08:09;;;;;;;27.77;14.57;;;-1.10;99.90;;;;;;5052391;28;20258;-49
2023/12/05 06:10:37;;;;;;;26.30;13.90;;;-1.10;99.90;;;;;;5031028;28;20270;-49
2023/12/05 06:13:04;;;;;;;26.10;14.70;;;-1.10;99.90;;;;;;5059425;28;20255;-45
2023/12/05 06:15:31;;;;;;;28.43;14.50;;;-1.10;99.90;;;;;;5039756;28;20209;-47
2023/12/05 06:17:57;;;;;;;29.67;15.27;;;-1.10;99.90;;;;;;5057931;28;20267;-51
2023/12/05 06:20:24;;;;;;;24.80;15.13;;;-1.10;99.90;;;;;;5048290;28;21147;-47
2023/12/05 06:22:52;;;;;;;23.30;14.23;;;-1.10;99.90;;;;;;5053262;28;20201;-48
2023/12/05 06:25:19;;;;;;;26.80;15.03;;;-1.10;99.90;;;;;;5057954;28;20294;-50
2023/12/05 06:27:47;;;;;;;26.83;14.47;;;-1.10;99.90;;;;;;5033883;28;21691;-48
2023/12/05 06:30:15;;;;;;;27.53;15.10;;;-1.10;99.90;;;;;;5042539;28;20683;-48
2023/12/05 06:32:41;;;;;;;24.90;14.23;;;-1.10;99.90;;;;;;5053009;28;20687;-50
2023/12/05 06:35:09;;;;;;;29.10;15.90;;;-1.10;99.90;;;;;;5045300;28;20250;-47
2023/12/05 06:37:36;;;;;;;28.03;15.73;;;-1.10;99.90;;;;;;5062350;28;20616;-47
2023/12/05 06:40:03;;;;;;;31.67;15.80;;;-1.10;99.90;;;;;;5054837;28;20241;-49
2023/12/05 06:42:30;;;;;;;26.83;16.37;;;-1.10;99.90;;;;;;5030323;28;20210;-47
2023/12/05 06:44:58;;;;;;;29.27;16.13;;;-1.10;99.90;;;;;;5061728;28;20689;-46
2023/12/05 06:47:25;;;;;;;27.07;15.30;;;-1.10;99.90;;;;;;5053159;28;20206;-47
2023/12/05 06:49:51;;;;;;;27.57;15.77;;;-1.10;99.90;;;;;;5058472;28;20201;-51
2023/12/05 06:52:19;;;;;;;28.40;16.00;;;-1.10;99.90;;;;;;5050803;28;20904;-47
2023/12/05 06:54:46;;;;;;;32.27;15.03;;;-1.10;99.90;;;;;;5052288;28;20770;-49
2023/12/05 06:57:13;;;;;;;28.63;15.40;;;-1.10;99.90;;;;;;5025294;28;20245;-48
2023/12/05 06:59:40;;;;;;;31.27;17.10;;;-1.10;99.90;;;;;;5061473;28;20220;-47
2023/12/05 07:02:08;;;;;;;25.87;16.53;;;-1.10;99.90;;;;;;5050663;28;20281;-46
2023/12/05 07:04:35;;;;;;;27.03;15.17;;;-1.20;99.90;;;;;;5047411;28;20255;-47
2023/12/05 07:07:02;;;;;;;24.33;14.33;;;-1.20;99.90;;;;;;5052480;28;20286;-46
2023/12/05 07:09:29;;;;;;;25.53;15.20;;;-1.20;99.90;;;;;;5049337;28;20203;-50
2023/12/05 07:11:56;;;;;;;27.40;16.13;;;-1.20;99.90;;;;;;5049776;28;20212;-47
2023/12/05 07:14:24;;;;;;;29.83;15.77;;;-1.20;99.90;;;;;;5027461;28;20531;-49
2023/12/05 07:16:51;;;;;;;33.70;17.50;;;-1.20;99.90;;;;;;5060833;28;20216;-46
2023/12/05 07:19:19;;;;;;;31.07;17.00;;;-1.20;99.90;;;;;;5049503;28;20207;-45
2023/12/05 07:21:50;;;;;;;28.80;15.77;;;-1.20;99.90;;;;;;5032470;28;20201;-47
2023/12/05 07:24:17;;;;;;;25.47;15.37;;;-1.20;99.90;;;;;;5060315;28;20594;-47
2023/12/05 07:26:46;;;;;;;25.90;15.53;;;-1.20;99.90;;;;;;5043645;28;20734;-47
2023/12/05 07:29:16;;;;;;;25.90;15.43;;;-1.10;99.90;;;;;;5034671;28;20292;-46
2023/12/05 07:31:50;;;;;;;29.10;16.27;;;-1.10;99.90;;;;;;5054958;28;20229;-47
2023/12/05 07:34:23;;;;;;;27.60;16.27;;;-1.10;99.90;;;;;;5051668;28;20298;-51
2023/12/05 07:37:01;;;;;;;30.27;17.10;;;-1.10;99.90;;;;;;5045873;28;20221;-47
2023/12/05 07:39:29;;;;;;;28.77;15.37;;;-1.10;99.90;;;;;;5053018;28;20220;-48
2023/12/05 07:42:05;;;;;;;29.90;16.87;;;-1.10;99.90;;;;;;5051672;28;20258;-45
2023/12/05 07:44:32;;;;;;;30.33;15.83;;;-1.10;99.90;;;;;;5052157;28;20597;-46
2023/12/05 07:47:00;;;;;;;30.37;15.97;;;-1.10;99.90;;;;;;5030762;28;20279;-47
2023/12/05 07:49:30;;;;;;;27.37;15.23;;;-1.10;99.90;;;;;;5063253;28;20190;-45
2023/12/05 07:52:00;;;;;;;29.07;16.30;;;-1.10;99.90;;;;;;5046475;28;20318;-45
2023/12/05 07:54:28;;;;;;;29.70;16.90;;;-1.10;99.90;;;;;;5053840;28;20205;-45
2023/12/05 07:56:57;;;;;;;30.60;16.97;;;-1.10;99.90;;;;;;5050742;28;20225;-47
2023/12/05 07:59:24;;;;;;;26.30;16.07;;;-1.10;99.90;;;;;;5056141;28;20201;-47
2023/12/05 08:01:52;;;;;;;32.43;17.20;;;-1.10;99.90;;;;;;5022113;28;20208;-47
2023/12/05 08:04:22;;;;;;;31.83;17.53;;;-1.10;99.90;;;;;;5061754;28;20280;-46
2023/12/05 08:06:51;;;;;;;28.67;16.70;;;-1.10;99.90;;;;;;5041943;28;20741;-51
2023/12/05 08:09:19;;;;;;;30.77;16.53;;;-1.00;99.90;;;;;;5053730;28;20195;-47
2023/12/05 08:11:46;;;;;;;32.03;18.40;;;-1.00;99.90;;;;;;5052284;28;20198;-47
2023/12/05 08:14:17;;;;;;;28.87;16.97;;;-1.00;99.90;;;;;;5045278;28;20608;-45
2023/12/05 08:16:52;;;;;;;30.63;18.27;;;-1.00;99.90;;;;;;5023240;28;20245;-49
2023/12/05 08:19:20;;;;;;;31.03;16.87;;;-1.00;99.90;;;;;;5050031;28;20211;-49
2023/12/05 08:21:47;;;;;;;29.77;17.13;;;-0.90;99.90;;;;;;5040026;28;20278;-46
2023/12/05 08:24:15;;;;;;;30.90;17.63;;;-0.90;99.90;;;;;;5062394;28;20198;-49
2023/12/05 08:26:42;;;;;;;35.20;18.43;;;-0.90;99.90;;;;;;5043908;28;20245;-47
2023/12/05 08:29:13;;;;;;;32.23;17.60;;;-0.90;99.90;;;;;;5046903;28;20219;-46
2023/12/05 08:31:42;;;;;;;28.57;16.30;;;-0.90;99.90;;;;;;5021044;28;20216;-46
2023/12/05 08:34:16;;;;;;;30.57;16.67;;;-0.90;99.90;;;;;;5048048;28;20202;-47
2023/12/05 08:36:45;;;;;;;31.97;17.03;;;-0.90;99.90;;;;;;5042154;28;20578;-46
2023/12/05 08:39:13;;;;;;;28.10;16.40;;;-0.90;99.90;;;;;;5050368;28;20256;-45
2023/12/05 08:41:45;;;;;;;28.67;17.43;;;-0.90;99.90;;;;;;5040349;28;20206;-46
2023/12/05 08:44:13;;;;;;;31.13;17.23;;;-0.80;99.90;;;;;;5058169;28;20229;-49
2023/12/05 08:46:41;;;;;;;32.13;18.10;;;-0.80;99.90;;;;;;5037744;28;20226;-45
2023/12/05 08:49:12;;;;;;;30.70;16.67;;;-0.80;99.90;;;;;;5047017;28;20194;-47
2023/12/05 08:51:43;;;;;;;32.77;16.50;;;-0.80;99.90;;;;;;5055597;28;20748;-45
2023/12/05 08:54:12;;;;;;;36.53;18.50;;;-0.80;99.90;;;;;;5048569;28;20603;-45
2023/12/05 08:56:44;;;;;;;33.97;17.93;;;-0.80;99.90;;;;;;5050060;28;20218;-50
2023/12/05 08:59:13;;;;;;;27.53;17.20;;;-0.80;99.90;;;;;;5046140;28;20603;-53
2023/12/05 09:01:48;;;;;;;32.33;17.80;;;-0.80;99.90;;;;;;5050605;28;20724;-44
2023/12/05 09:04:22;;;;;;;31.93;17.10;;;-0.80;99.90;;;;;;5027394;28;20350;-49
2023/12/05 09:06:50;;;;;;;29.93;17.23;;;-0.80;99.90;;;;;;5054593;28;20592;-50
2023/12/05 09:09:18;;;;;;;29.80;15.80;;;-0.80;99.90;;;;;;5043005;28;20326;-52
2023/12/05 09:11:48;;;;;;;32.93;17.93;;;-0.80;99.90;;;;;;5048743;28;20281;-46
2023/12/05 09:14:21;;;;;;;32.80;18.63;;;-0.80;99.90;;;;;;5049083;28;20806;-48
2023/12/05 09:16:51;;;;;;;29.70;16.87;;;-0.80;99.90;;;;;;5052512;28;20225;-47
2023/12/05 09:19:19;;;;;;;31.57;18.40;;;-0.70;99.90;;;;;;5021611;28;20221;-49
2023/12/05 09:21:47;;;;;;;31.13;17.43;;;-0.70;99.90;;;;;;5057546;28;20202;-46
2023/12/05 09:24:14;;;;;;;32.40;18.37;;;-0.70;99.90;;;;;;5040414;28;20218;-47
2023/12/05 09:26:41;;;;;;;29.83;18.00;;;-0.70;99.90;;;;;;5052787;28;20271;-53
2023/12/05 09:29:11;;;;;;;27.57;17.53;;;-0.70;99.90;;;;;;5047894;28;20193;-51
2023/12/05 09:31:39;;;;;;;30.00;17.33;;;-0.70;99.90;;;;;;5052890;28;20206;-52
2023/12/05 09:34:07;;;;;;;31.10;18.20;;;-0.70;99.90;;;;;;5035688;28;20252;-46
2023/12/05 09:36:35;;;;;;;30.87;17.97;;;-0.70;99.90;;;;;;5059205;28;20224;-48
2023/12/05 09:39:04;;;;;;;32.67;18.63;;;-0.70;99.90;;;;;;5044154;28;20201;-50
2023/12/05 09:41:33;;;;;;;28.57;17.00;;;-0.70;99.90;;;;;;5046237;28;20225;-51
2023/12/05 09:44:04;;;;;;;30.50;18.07;;;-0.60;99.90;;;;;;5059983;28;20198;-48
2023/12/05 09:46:38;;;;;;;30.90;17.67;;;-0.60;99.90;;;;;;5046374;28;20705;-50
2023/12/05 09:49:07;;;;;;;33.03;18.70;;;-0.60;99.90;;;;;;5057280;28;20701;-49
2023/12/05 09:51:37;;;;;;;33.13;17.90;;;-0.60;99.90;;;;;;5026052;28;20669;-47
2023/12/05 09:54:05;;;;;;;34.13;19.60;;;-0.60;99.90;;;;;;5045824;28;20219;-50
2023/12/05 09:56:33;;;;;;;30.13;17.10;;;-0.60;99.90;;;;;;5045776;28;20225;-49
2023/12/05 09:59:02;;;;;;;28.83;17.57;;;-0.60;99.90;;;;;;5058093;28;20201;-49
2023/12/05 10:01:32;;;;;;;31.77;18.50;;;-0.60;99.90;;;;;;5050969;28;20190;-47
2023/12/05 10:04:03;;;;;;;32.80;18.53;;;-0.70;99.90;;;;;;5054716;28;20704;-50
2023/12/05 10:06:39;;;;;;;28.83;17.87;;;-0.70;99.90;;;;;;5031083;28;20797;-47
2023/12/05 10:09:23;;;;;;;33.23;17.77;;;-0.60;99.90;;;;;;5048566;28;20190;-51
2023/12/05 10:11:52;;;;;;;28.43;17.70;;;-0.60;99.90;;;;;;5047254;28;20288;-46
2023/12/05 10:14:20;;;;;;;31.83;19.03;;;-0.60;99.90;;;;;;5048602;28;20198;-49
2023/12/05 10:16:49;;;;;;;30.33;17.17;;;-0.50;99.90;;;;;;5051322;28;20221;-50
2023/12/05 10:19:21;;;;;;;31.27;18.10;;;-0.50;99.90;;;;;;5051794;28;20264;-46
2023/12/05 10:21:51;;;;;;;33.83;19.03;;;-0.50;99.90;;;;;;5059300;28;20205;-49
2023/12/05 10:24:19;;;;;;;32.43;18.23;;;-0.50;99.90;;;;;;5018034;28;20283;-51
2023/12/05 10:26:47;;;;;;;31.93;17.60;;;-0.40;99.90;;;;;;5048586;28;20730;-51
2023/12/05 10:29:15;;;;;;;29.17;17.77;;;-0.40;99.90;;;;;;5048763;28;20260;-50
2023/12/05 10:31:47;;;;;;;34.00;17.83;;;-0.40;99.90;;;;;;5060717;28;20252;-52
2023/12/05 10:34:16;;;;;;;34.20;19.10;;;-0.40;99.90;;;;;;5042821;28;20853;-52
2023/12/05 10:37:03;;;;;;;28.73;17.60;;;-0.40;99.90;;;;;;5059859;28;20228;-53
2023/12/05 10:39:37;;;;;;;31.17;19.03;;;-0.30;99.90;;;;;;5031005;28;20209;-49
2023/12/05 10:42:07;;;;;;;28.53;17.43;;;-0.30;99.90;;;;;;5045777;28;20197;-49
2023/12/05 10:44:39;;;;;;;32.57;17.77;;;-0.30;99.90;;;;;;5047309;28;20203;-50
2023/12/05 10:47:10;;;;;;;31.10;18.73;;;-0.30;99.90;;;;;;5060210;28;20213;-47
2023/12/05 10:49:41;;;;;;;29.50;18.20;;;-0.30;99.90;;;;;;5037579;28;20194;-48
2023/12/05 10:52:15;;;;;;;31.87;18.93;;;-0.20;99.90;;;;;;5059957;28;20198;-50
2023/12/05 10:54:45;;;;;;;28.10;17.33;;;-0.20;99.90;;;;;;5034563;28;20209;-53
2023/12/05 10:57:16;;;;;;;29.63;17.47;;;-0.10;99.90;;;;;;5055039;28;20221;-49
2023/12/05 10:59:44;;;;;;;38.00;19.27;;;-0.10;99.90;;;;;;5038609;28;20400;-50
2023/12/05 11:02:13;;;;;;;33.67;18.43;;;-0.10;99.90;;;;;;5063015;28;20553;-49
2023/12/05 11:04:41;;;;;;;28.93;17.23;;;0.00;99.90;;;;;;5050534;28;20981;-50
2023/12/05 11:07:08;;;;;;;28.10;17.93;;;-0.10;99.90;;;;;;5061301;28;20222;-51
2023/12/05 11:09:36;;;;;;;32.83;18.60;;;-0.10;99.90;;;;;;5033599;28;20416;-48
2023/12/05 11:12:06;;;;;;;25.67;17.43;;;-0.10;99.90;;;;;;5049829;28;20207;-51
2023/12/05 11:14:41;;;;;;;31.83;18.40;;;-0.10;99.90;;;;;;5035044;28;20332;-48
2023/12/05 11:17:13;;;;;;;34.30;18.93;;;-0.10;99.90;;;;;;5044119;28;20326;-50
2023/12/05 11:20:00;;;;;;;29.03;17.83;;;-0.10;99.90;;;;;;5048477;28;20196;-51
2023/12/05 11:22:39;;;;;;;30.20;18.50;;;-0.10;99.90;;;;;;5050081;28;20206;-50
2023/12/05 11:25:21;;;;;;;31.73;18.47;;;0.00;99.90;;;;;;5033537;28;20464;-49
2023/12/05 11:28:02;;;;;;;28.47;17.07;;;0.00;99.90;;;;;;5051667;28;20214;-47
2023/12/05 11:30:53;;;;;;;28.67;18.43;;;0.00;99.90;;;;;;5049987;28;20267;-49
2023/12/05 11:33:37;;;;;;;29.87;17.70;;;0.00;99.90;;;;;;5061071;28;20222;-51
2023/12/05 11:36:17;;;;;;;34.90;18.00;;;0.00;99.90;;;;;;5048337;28;20275;-51
2023/12/05 11:38:45;;;;;;;31.93;19.20;;;0.10;99.90;;;;;;5053037;28;20197;-51
2023/12/05 11:41:14;;;;;;;28.13;17.47;;;0.10;99.90;;;;;;5031599;28;20343;-50
2023/12/05 11:43:42;;;;;;;31.93;18.37;;;0.10;99.90;;;;;;5045185;28;20202;-51
2023/12/05 11:46:09;;;;;;;32.37;18.33;;;0.10;99.90;;;;;;5043496;28;20206;-48
2023/12/05 11:48:36;;;;;;;31.87;18.47;;;0.20;99.90;;;;;;5057530;28;20202;-48
2023/12/05 11:51:03;;;;;;;29.83;17.70;;;0.20;99.90;;;;;;5049651;28;20304;-51
2023/12/05 11:53:31;;;;;;;32.40;18.33;;;0.20;99.90;;;;;;5061702;28;20279;-49
2023/12/05 11:55:58;;;;;;;28.50;18.30;;;0.20;99.90;;;;;;5031222;28;20284;-51
2023/12/05 11:58:31;;;;;;;28.23;18.47;;;0.20;99.90;;;;;;5052205;28;20264;-49
2023/12/05 12:01:02;;;;;;;27.43;16.20;;;0.20;99.90;;;;;;5050462;28;20202;-51
2023/12/05 12:03:43;;;;;;;29.83;18.20;;;0.20;99.90;;;;;;5059058;28;20705;-50
2023/12/05 12:06:11;;;;;;;32.13;18.87;;;0.30;99.90;;;;;;5050426;28;20252;-51
2023/12/05 12:08:38;;;;;;;27.13;16.77;;;0.30;99.90;;;;;;5060135;28;20592;-48
2023/12/05 12:11:05;;;;;;;29.20;17.07;;;0.30;99.90;;;;;;5058981;28;20280;-50
2023/12/05 12:13:34;;;;;;;27.23;17.53;;;0.30;99.90;;;;;;5032899;28;20210;-50
2023/12/05 12:16:01;;;;;;;32.53;18.13;;;0.30;99.90;;;;;;5052149;28;20219;-48
2023/12/05 12:18:28;;;;;;;29.10;17.77;;;0.30;99.90;;;;;;5053464;28;20298;-49
2023/12/05 12:20:55;;;;;;;27.63;18.07;;;0.30;99.90;;;;;;5058032;28;20205;-48
2023/12/05 12:23:22;;;;;;;29.67;16.87;;;0.30;99.90;;;;;;5053175;28;20213;-49
2023/12/05 12:25:52;;;;;;;28.43;18.83;;;0.40;99.90;;;;;;5056945;28;20222;-51
2023/12/05 12:28:28;;;;;;;29.23;17.83;;;0.40;99.90;;;;;;5031407;28;20340;-51
2023/12/05 12:30:56;;;;;;;31.50;17.73;;;0.40;99.90;;;;;;5048763;28;20480;-50
2023/12/05 12:33:28;;;;;;;27.77;16.87;;;0.40;99.90;;;;;;5053446;28;20201;-50
2023/12/05 12:35:55;;;;;;;29.47;17.93;;;0.40;99.90;;;;;;5056237;28;20264;-50
2023/12/05 12:38:23;;;;;;;29.57;17.20;;;0.40;99.90;;;;;;5053765;28;20191;-49